Time;durP1;ratioP1;P1;durP2;ratioP2;P2;SDS_P1;SDS_P2;PMS_P1;PMS_P2;Temp;Humidity;BMP_temperature;BMP_pressure;BME280_temperature;BME280_humidity;BME280_pressure;Samples;Min_cycle;Max_cycle;Signal;HPM_P1;HPM_P2
2023/10/26 00:00:40;;;;;;;30.08;16.35;;;;;;;17.52;100.00;98994.88;5135116;27;20027;-64
2023/10/26 00:03:06;;;;;;;31.85;15.80;;;;;;;17.40;100.00;99002.84;5134793;27;20039;-64
2023/10/26 00:05:31;;;;;;;30.52;15.60;;;;;;;17.38;100.00;98991.53;5135285;27;20039;-64
2023/10/26 00:07:56;;;;;;;27.15;15.75;;;;;;;17.35;100.00;98996.53;5135083;27;20032;-64
2023/10/26 00:10:22;;;;;;;29.10;15.38;;;;;;;17.36;100.00;98987.44;5135750;27;20505;-64
2023/10/26 00:12:48;;;;;;;24.63;15.25;;;;;;;17.31;100.00;98996.16;5136378;27;20231;-64
2023/10/26 00:15:13;;;;;;;27.38;15.15;;;;;;;17.26;100.00;98990.66;5136381;27;20340;-64
2023/10/26 00:17:39;;;;;;;25.98;14.93;;;;;;;17.02;98.82;98988.88;5136247;27;20039;-64
2023/10/26 00:20:06;;;;;;;29.15;15.63;;;;;;;16.68;97.69;98985.69;5136036;27;20098;-64
2023/10/26 00:22:32;;;;;;;24.23;15.23;;;;;;;16.31;100.00;98979.38;5135039;27;20035;-64
2023/10/26 00:24:58;;;;;;;32.03;15.18;;;;;;;16.34;100.00;98992.31;5135782;27;20038;-65
2023/10/26 00:27:23;;;;;;;31.10;15.38;;;;;;;16.40;100.00;98980.75;5134634;27;20037;-64
2023/10/26 00:29:49;;;;;;;31.00;16.38;;;;;;;16.48;100.00;98967.09;5135412;27;20031;-65
2023/10/26 00:32:14;;;;;;;27.60;14.95;;;;;;;16.61;100.00;98977.69;5136342;27;20246;-64
2023/10/26 00:34:40;;;;;;;33.00;15.45;;;;;;;16.67;100.00;98976.03;5137169;27;20038;-65
2023/10/26 00:37:05;;;;;;;25.08;14.70;;;;;;;16.70;100.00;98970.25;5135525;27;20116;-64
2023/10/26 00:39:31;;;;;;;27.23;15.55;;;;;;;16.76;100.00;98976.59;5123734;28;20043;-65
2023/10/26 00:41:56;;;;;;;30.00;14.82;;;;;;;16.76;100.00;98965.88;5121103;27;20251;-64
2023/10/26 00:44:23;;;;;;;30.85;14.80;;;;;;;16.86;100.00;98975.03;5122212;27;20355;-64
2023/10/26 00:46:50;;;;;;;26.63;15.10;;;;;;;16.91;100.00;98972.50;5121883;27;20035;-64
2023/10/26 00:49:17;;;;;;;27.08;14.73;;;;;;;16.91;100.00;98980.53;5111980;27;20039;-64
2023/10/26 00:51:46;;;;;;;25.40;16.05;;;;;;;16.83;100.00;98978.16;5120684;27;20370;-65
2023/10/26 00:54:13;;;;;;;23.65;15.70;;;;;;;16.76;100.00;98981.94;5122415;27;20035;-65
2023/10/26 00:56:39;;;;;;;25.13;15.65;;;;;;;16.76;100.00;98984.59;5118839;27;20614;-65
2023/10/26 00:59:05;;;;;;;26.65;14.55;;;;;;;16.82;100.00;98978.38;5121505;27;20023;-64
2023/10/26 01:01:31;;;;;;;25.52;15.88;;;;;;;16.86;100.00;98983.06;5121794;27;20061;-64
2023/10/26 01:03:57;;;;;;;28.80;15.13;;;;;;;16.88;100.00;98961.44;5122287;27;20256;-65
2023/10/26 01:06:23;;;;;;;25.02;14.95;;;;;;;16.95;100.00;98956.03;5120112;27;20259;-64
2023/10/26 01:08:49;;;;;;;30.13;15.50;;;;;;;16.88;99.73;98937.38;5120793;27;20035;-64
2023/10/26 01:11:15;;;;;;;30.85;16.20;;;;;;;16.84;99.86;98941.53;5121319;27;20046;-64
2023/10/26 01:13:41;;;;;;;29.45;14.38;;;;;;;16.79;100.00;98942.19;5121145;27;20230;-64
2023/10/26 01:16:07;;;;;;;24.65;14.82;;;;;;;16.79;99.02;98946.72;5121389;27;20035;-64
2023/10/26 01:18:32;;;;;;;26.35;15.25;;;;;;;16.67;100.00;98948.50;5120609;27;20379;-64
2023/10/26 01:20:58;;;;;;;30.85;14.75;;;;;;;16.75;100.00;98949.03;5120496;27;20035;-64
2023/10/26 01:23:23;;;;;;;29.33;14.95;;;;;;;16.74;100.00;98963.44;5120729;27;20031;-64
2023/10/26 01:25:56;;;;;;;30.25;16.17;;;;;;;16.76;100.00;98971.22;5120302;27;20035;-64
2023/10/26 01:28:23;;;;;;;26.20;15.02;;;;;;;16.73;99.12;98969.81;5119264;27;20050;-64
2023/10/26 01:30:48;;;;;;;27.63;15.18;;;;;;;16.75;99.13;98954.38;5120207;27;20061;-64
2023/10/26 01:33:14;;;;;;;32.50;17.05;;;;;;;16.65;100.00;98951.38;5120592;27;20040;-64
2023/10/26 01:35:42;;;;;;;26.42;16.52;;;;;;;16.50;100.00;98950.84;5119788;27;20039;-64
2023/10/26 01:38:08;;;;;;;29.35;16.13;;;;;;;16.52;100.00;98954.94;5120212;27;20086;-63
2023/10/26 01:40:33;;;;;;;27.60;17.05;;;;;;;16.53;100.00;98955.75;5119728;27;20035;-64
2023/10/26 01:42:59;;;;;;;32.45;16.77;;;;;;;16.51;100.00;98958.66;5121967;27;20035;-64
2023/10/26 01:45:24;;;;;;;31.25;17.30;;;;;;;16.57;100.00;98963.13;5121391;27;20035;-64
2023/10/26 01:47:50;;;;;;;26.83;16.40;;;;;;;16.65;100.00;98966.56;5120579;27;20039;-64
2023/10/26 01:50:15;;;;;;;26.20;15.48;;;;;;;16.65;100.00;98966.56;5118747;27;20293;-64
2023/10/26 01:52:44;;;;;;;26.08;15.98;;;;;;;16.16;100.00;98963.66;5120136;27;20039;-64
2023/10/26 01:55:09;;;;;;;28.20;15.77;;;;;;;16.23;100.00;98980.47;5119903;27;20027;-64
2023/10/26 01:57:35;;;;;;;27.23;15.63;;;;;;;16.33;100.00;98979.97;5118636;27;20040;-64
2023/10/26 02:00:00;;;;;;;32.00;16.90;;;;;;;16.34;100.00;98981.63;5120508;27;20031;-64
2023/10/26 02:02:26;;;;;;;34.30;17.27;;;;;;;16.29;100.00;98966.25;5119310;27;20042;-64
2023/10/26 02:04:51;;;;;;;34.47;17.77;;;;;;;16.41;100.00;98957.50;5120206;27;20024;-64
2023/10/26 02:07:17;;;;;;;28.10;18.13;;;;;;;16.51;100.00;98963.19;5118317;27;20048;-63
2023/10/26 02:09:42;;;;;;;30.20;17.13;;;;;;;16.51;100.00;98963.19;5119158;27;20352;-64
2023/10/26 02:12:08;;;;;;;29.90;17.92;;;;;;;16.42;100.00;98964.50;5119028;27;20261;-64
2023/10/26 02:14:33;;;;;;;33.45;18.17;;;;;;;16.52;100.00;98956.78;5119967;27;20388;-64
2023/10/26 02:16:59;;;;;;;33.45;18.20;;;;;;;16.58;100.00;98975.44;5119877;27;20043;-64
2023/10/26 02:19:24;;;;;;;27.70;17.45;;;;;;;16.56;100.00;98972.19;5119630;27;20035;-64
2023/10/26 02:21:49;;;;;;;27.75;16.27;;;;;;;16.35;100.00;98977.91;5120523;27;20321;-64
2023/10/26 02:24:15;;;;;;;29.80;15.80;;;;;;;16.16;100.00;98971.69;5120372;27;20042;-64
2023/10/26 02:26:40;;;;;;;33.28;17.40;;;;;;;15.79;100.00;98965.34;5119583;27;20321;-64
2023/10/26 02:29:06;;;;;;;33.85;17.98;;;;;;;15.97;100.00;98948.59;5119274;27;20028;-64
2023/10/26 02:31:31;;;;;;;28.08;16.73;;;;;;;16.08;100.00;98955.09;5118210;27;20272;-64
2023/10/26 02:33:57;;;;;;;22.98;15.23;;;;;;;16.14;100.00;98964.91;5118264;27;20020;-64
2023/10/26 02:36:22;;;;;;;25.92;15.00;;;;;;;16.10;100.00;98951.19;5117976;27;20059;-64
2023/10/26 02:38:47;;;;;;;31.05;15.80;;;;;;;16.10;100.00;98959.19;5118011;27;20066;-64
2023/10/26 02:41:13;;;;;;;29.52;15.88;;;;;;;16.23;100.00;98952.94;5119253;27;20058;-64
2023/10/26 02:43:38;;;;;;;30.48;16.27;;;;;;;16.30;100.00;98977.75;5119950;27;20043;-64
2023/10/26 02:46:04;;;;;;;29.40;16.25;;;;;;;16.22;100.00;98973.47;5118681;27;20028;-64
2023/10/26 02:48:30;;;;;;;26.88;15.65;;;;;;;16.26;100.00;98937.28;5118103;27;20039;-64
2023/10/26 02:50:56;;;;;;;25.25;14.50;;;;;;;16.08;100.00;98937.22;5118434;27;20036;-64
2023/10/26 02:53:21;;;;;;;25.90;15.88;;;;;;;16.15;100.00;98947.84;5117314;27;20398;-64
2023/10/26 02:55:46;;;;;;;33.33;16.67;;;;;;;15.80;100.00;98939.47;5118107;28;20324;-64
2023/10/26 02:58:12;;;;;;;28.85;15.80;;;;;;;15.82;100.00;98946.25;5117716;27;20048;-64
2023/10/26 03:00:37;;;;;;;28.95;14.70;;;;;;;15.93;100.00;98958.91;5119240;27;20035;-64
2023/10/26 03:03:03;;;;;;;32.22;15.70;;;;;;;15.96;100.00;98955.78;5117953;27;20035;-64
2023/10/26 03:05:29;;;;;;;27.17;15.32;;;;;;;16.03;100.00;98945.06;5118663;27;20275;-64
2023/10/26 03:07:55;;;;;;;26.95;15.88;;;;;;;16.04;100.00;98949.38;5119678;27;20038;-64
2023/10/26 03:10:20;;;;;;;26.23;16.15;;;;;;;16.03;100.00;98947.75;5118633;27;20036;-64
2023/10/26 03:12:47;;;;;;;28.20;15.65;;;;;;;16.05;100.00;98942.19;5120333;27;20050;-64
2023/10/26 03:15:12;;;;;;;29.95;14.35;;;;;;;16.00;100.00;98937.50;5118141;27;20399;-64
2023/10/26 03:17:38;;;;;;;28.48;15.55;;;;;;;15.78;100.00;98934.34;5119316;28;20039;-64
2023/10/26 03:20:05;;;;;;;27.38;15.32;;;;;;;15.42;100.00;98931.44;5118545;27;20035;-64
2023/10/26 03:22:32;;;;;;;24.38;14.50;;;;;;;15.27;100.00;98937.03;5118518;27;20031;-64
2023/10/26 03:24:57;;;;;;;24.08;15.07;;;;;;;15.49;100.00;98945.56;5118091;28;20036;-64
2023/10/26 03:27:23;;;;;;;26.17;15.93;;;;;;;15.61;100.00;98938.56;5118690;28;20050;-63
2023/10/26 03:29:48;;;;;;;25.20;14.43;;;;;;;15.59;100.00;98937.94;5118798;28;20310;-63
2023/10/26 03:32:13;;;;;;;26.38;14.60;;;;;;;15.62;100.00;98940.19;5118172;28;20089;-64
2023/10/26 03:34:39;;;;;;;24.88;15.38;;;;;;;15.74;100.00;98948.34;5118287;28;20033;-64
2023/10/26 03:37:04;;;;;;;29.50;15.75;;;;;;;15.81;100.00;98931.25;5117813;28;20051;-66
2023/10/26 03:39:30;;;;;;;25.45;15.73;;;;;;;15.90;100.00;98931.81;5119785;28;20340;-65
2023/10/26 03:41:55;;;;;;;26.92;15.55;;;;;;;15.94;100.00;98919.66;5119004;28;20039;-65
2023/10/26 03:44:21;;;;;;;26.67;15.65;;;;;;;15.85;100.00;98897.75;5118131;28;20046;-65
2023/10/26 03:46:46;;;;;;;29.00;15.52;;;;;;;15.85;100.00;98911.09;5118963;28;20042;-65
2023/10/26 03:49:12;;;;;;;28.35;16.10;;;;;;;15.95;100.00;98910.63;5118490;28;20033;-65
2023/10/26 03:51:37;;;;;;;30.20;16.83;;;;;;;16.04;100.00;98921.84;5118957;28;20243;-64
2023/10/26 03:54:03;;;;;;;28.35;16.85;;;;;;;16.04;100.00;98919.19;5119386;28;20325;-65
2023/10/26 03:56:29;;;;;;;28.42;14.95;;;;;;;16.11;100.00;98907.41;5118500;28;20118;-64
2023/10/26 03:58:54;;;;;;;24.40;15.73;;;;;;;16.16;100.00;98906.75;5119632;28;20516;-63
2023/10/26 04:01:20;;;;;;;33.65;16.55;;;;;;;16.24;100.00;98918.00;5118810;28;20070;-65
2023/10/26 04:03:45;;;;;;;28.67;15.35;;;;;;;16.28;100.00;98903.16;5118823;28;20027;-64
2023/10/26 04:06:11;;;;;;;25.80;15.52;;;;;;;16.28;100.00;98883.66;5118495;28;20221;-63
2023/10/26 04:08:39;;;;;;;25.65;14.75;;;;;;;16.20;100.00;98881.25;5117030;28;20072;-64
2023/10/26 04:11:05;;;;;;;23.23;14.30;;;;;;;15.98;100.00;98880.81;5119165;28;20043;-64
2023/10/26 04:13:30;;;;;;;22.48;14.68;;;;;;;16.02;100.00;98892.69;5118350;28;20351;-64
2023/10/26 04:16:00;;;;;;;30.45;15.52;;;;;;;16.09;100.00;98888.13;5122806;27;20032;-65
2023/10/26 04:18:27;;;;;;;27.50;14.38;;;;;;;16.14;100.00;98880.28;5122718;27;20039;-64
2023/10/26 04:20:53;;;;;;;31.95;15.93;;;;;;;16.15;100.00;98889.09;5122883;27;20038;-65
2023/10/26 04:23:18;;;;;;;23.63;15.00;;;;;;;16.15;100.00;98902.47;5120964;27;20031;-64
2023/10/26 04:25:44;;;;;;;24.17;15.20;;;;;;;16.12;100.00;98903.72;5120488;27;21235;-64
2023/10/26 04:28:09;;;;;;;23.50;15.27;;;;;;;16.13;100.00;98907.19;5121323;27;20024;-64
2023/10/26 04:30:34;;;;;;;28.98;16.45;;;;;;;16.08;100.00;98909.72;5120825;27;20024;-64
2023/10/26 04:33:00;;;;;;;28.90;15.25;;;;;;;16.05;100.00;98915.47;5120606;27;20031;-63
2023/10/26 04:35:25;;;;;;;29.58;16.45;;;;;;;16.08;100.00;98915.03;5121770;27;20341;-64
2023/10/26 04:37:52;;;;;;;24.23;15.90;;;;;;;16.02;100.00;98922.06;5120567;27;20066;-64
2023/10/26 04:40:17;;;;;;;35.72;17.67;;;;;;;15.94;100.00;98920.50;5122746;27;20034;-64
2023/10/26 04:42:43;;;;;;;29.20;16.92;;;;;;;16.01;100.00;98920.44;5121237;27;20043;-64
2023/10/26 04:45:08;;;;;;;31.75;17.30;;;;;;;15.99;100.00;98914.50;5122097;27;20237;-64
2023/10/26 04:47:34;;;;;;;31.52;17.13;;;;;;;16.06;100.00;98907.25;5120903;27;20072;-64
2023/10/26 04:49:59;;;;;;;27.95;16.20;;;;;;;15.92;100.00;98917.22;5120922;27;20313;-64
2023/10/26 04:52:25;;;;;;;28.85;15.32;;;;;;;15.96;100.00;98910.41;5120946;27;20047;-64
2023/10/26 04:54:50;;;;;;;29.63;15.90;;;;;;;16.02;100.00;98915.91;5121100;27;20232;-64
2023/10/26 04:57:16;;;;;;;33.22;16.02;;;;;;;16.02;100.00;98906.06;5119243;27;20056;-64
2023/10/26 04:59:41;;;;;;;26.52;15.75;;;;;;;16.04;100.00;98908.50;5120774;27;20048;-64
2023/10/26 05:02:06;;;;;;;30.40;15.85;;;;;;;16.02;100.00;98902.56;5121509;27;20035;-63
2023/10/26 05:04:32;;;;;;;28.08;15.25;;;;;;;15.96;100.00;98901.59;5119966;27;20050;-64
2023/10/26 05:06:57;;;;;;;28.73;15.93;;;;;;;15.91;100.00;98907.56;5120526;27;20043;-64
2023/10/26 05:09:23;;;;;;;25.55;16.25;;;;;;;15.93;100.00;98913.50;5120071;27;20039;-64
2023/10/26 05:11:48;;;;;;;28.98;15.45;;;;;;;15.93;100.00;98920.69;5120157;27;20228;-64
2023/10/26 05:14:13;;;;;;;26.63;16.30;;;;;;;15.99;100.00;98919.03;5120409;27;20057;-64
2023/10/26 05:16:39;;;;;;;26.30;17.15;;;;;;;16.01;100.00;98920.44;5120671;27;20259;-65
2023/10/26 05:19:04;;;;;;;28.10;15.52;;;;;;;15.99;100.00;98933.19;5121968;27;20072;-64
2023/10/26 05:21:30;;;;;;;30.58;17.65;;;;;;;15.93;100.00;98934.06;5120063;27;20044;-64
2023/10/26 05:23:55;;;;;;;28.58;17.48;;;;;;;15.85;100.00;98948.47;5121164;27;20332;-65
2023/10/26 05:26:20;;;;;;;39.22;24.75;;;;;;;15.79;100.00;98952.00;5120674;27;20321;-64
2023/10/26 05:28:47;;;;;;;35.40;22.45;;;;;;;15.85;100.00;98948.47;5119744;27;20042;-65
2023/10/26 05:31:12;;;;;;;33.00;20.35;;;;;;;16.02;100.00;98932.75;5120114;27;20058;-65
2023/10/26 05:33:38;;;;;;;36.05;18.73;;;;;;;16.14;100.00;98927.53;5120301;27;20337;-64
2023/10/26 05:36:04;;;;;;;30.75;18.38;;;;;;;16.11;100.00;98926.13;5120288;27;20221;-64
2023/10/26 05:38:29;;;;;;;33.47;18.92;;;;;;;15.79;100.00;98924.50;5111773;27;20054;-65
2023/10/26 05:40:55;;;;;;;31.52;19.42;;;;;;;15.70;100.00;98923.94;5121482;27;20216;-65
2023/10/26 05:43:24;;;;;;;33.15;19.33;;;;;;;15.91;100.00;98928.13;5119957;27;20059;-65
2023/10/26 05:45:49;;;;;;;34.17;19.65;;;;;;;16.09;100.00;98930.84;5120166;27;20031;-65
2023/10/26 05:48:16;;;;;;;40.30;23.98;;;;;;;16.09;100.00;98938.03;5119028;27;20047;-64
2023/10/26 05:50:42;;;;;;;32.17;19.45;;;;;;;16.03;100.00;98949.59;5120075;27;20779;-64
2023/10/26 05:53:11;;;;;;;33.42;20.52;;;;;;;16.06;100.00;98958.00;5121032;27;20039;-64
2023/10/26 05:55:39;;;;;;;37.67;21.73;;;;;;;16.23;100.00;98976.97;5120505;27;20134;-64
2023/10/26 05:58:05;;;;;;;35.83;21.25;;;;;;;16.34;100.00;98983.47;5120188;27;20081;-64
2023/10/26 06:00:31;;;;;;;37.65;22.15;;;;;;;16.42;100.00;98986.69;5119330;27;20032;-64
2023/10/26 06:02:58;;;;;;;33.92;19.67;;;;;;;16.49;100.00;98997.31;5120585;27;20034;-64
2023/10/26 06:05:23;;;;;;;36.97;19.48;;;;;;;16.51;100.00;99003.25;5121010;27;20049;-63
2023/10/26 06:07:49;;;;;;;32.58;20.58;;;;;;;16.51;100.00;99008.59;5120687;27;20043;-64
2023/10/26 06:10:14;;;;;;;33.33;20.38;;;;;;;16.49;100.00;99019.53;5119820;27;20240;-64
2023/10/26 06:12:40;;;;;;;34.97;19.73;;;;;;;16.46;100.00;99017.28;5118173;27;20328;-64
2023/10/26 06:15:06;;;;;;;35.42;23.15;;;;;;;16.47;100.00;99005.56;5121117;27;20036;-65
2023/10/26 06:17:31;;;;;;;37.28;20.75;;;;;;;16.54;100.00;99000.97;5120512;27;20031;-65
2023/10/26 06:19:57;;;;;;;34.63;22.25;;;;;;;16.55;100.00;98994.59;5119856;27;20542;-64
2023/10/26 06:22:22;;;;;;;35.97;21.95;;;;;;;16.51;100.00;98989.91;5119480;27;20035;-64
2023/10/26 06:24:47;;;;;;;36.83;22.20;;;;;;;16.52;100.00;98988.88;5118767;27;20028;-64
2023/10/26 06:27:13;;;;;;;44.70;24.58;;;;;;;16.47;100.00;98994.88;5120020;27;20089;-64
2023/10/26 06:29:39;;;;;;;41.45;23.10;;;;;;;16.57;100.00;98986.34;5118666;27;20031;-65
2023/10/26 06:32:04;;;;;;;38.13;24.63;;;;;;;16.62;100.00;98999.88;5117839;27;20111;-65
2023/10/26 06:34:31;;;;;;;41.63;25.00;;;;;;;16.67;100.00;99005.44;5117944;27;20161;-64
2023/10/26 06:36:56;;;;;;;39.88;23.15;;;;;;;16.75;100.00;99001.69;5117051;27;20835;-64
2023/10/26 06:39:21;;;;;;;37.22;21.98;;;;;;;16.46;100.00;99006.59;5117550;27;20038;-63
2023/10/26 06:41:47;;;;;;;41.85;24.67;;;;;;;16.59;100.00;99019.03;5116452;27;20042;-64
2023/10/26 06:44:13;;;;;;;35.05;19.65;;;;;;;16.71;100.00;99022.69;5118217;27;20389;-64
2023/10/26 06:46:38;;;;;;;37.28;20.10;;;;;;;16.74;100.00;99030.25;5117660;27;20039;-65
2023/10/26 06:49:04;;;;;;;38.85;20.63;;;;;;;16.77;100.00;99048.53;5116202;27;20032;-64
2023/10/26 06:51:30;;;;;;;34.50;19.65;;;;;;;16.80;100.00;99055.31;5117797;27;20035;-65
2023/10/26 06:53:55;;;;;;;38.53;19.70;;;;;;;16.80;100.00;99050.78;5117699;27;20035;-65
2023/10/26 06:56:21;;;;;;;37.03;20.52;;;;;;;16.90;100.00;99043.06;5117702;27;20159;-64
2023/10/26 06:58:47;;;;;;;39.10;19.35;;;;;;;17.00;100.00;99031.88;5117813;27;20030;-65
2023/10/26 07:01:12;;;;;;;33.50;18.88;;;;;;;16.98;100.00;99017.91;5117776;27;20358;-65
2023/10/26 07:03:38;;;;;;;34.50;19.63;;;;;;;17.03;100.00;99009.22;5117606;27;20039;-65
2023/10/26 07:06:04;;;;;;;45.22;21.88;;;;;;;16.78;100.00;98998.56;5117581;27;20050;-65
2023/10/26 07:08:29;;;;;;;39.50;22.98;;;;;;;16.71;100.00;99000.47;5116754;27;20023;-64
2023/10/26 07:10:55;;;;;;;40.40;21.95;;;;;;;16.76;100.00;98998.78;5117129;27;20042;-64
2023/10/26 07:13:21;;;;;;;41.38;22.52;;;;;;;16.83;100.00;98988.84;5116884;27;20032;-64
2023/10/26 07:15:47;;;;;;;41.17;20.75;;;;;;;17.03;100.00;99002.00;5116875;27;20385;-64
2023/10/26 07:18:15;;;;;;;38.78;19.15;;;;;;;17.16;100.00;98995.72;5116426;28;20066;-64
2023/10/26 07:20:40;;;;;;;40.10;18.55;;;;;;;17.24;100.00;99011.47;5099023;28;20324;-65
2023/10/26 07:23:06;;;;;;;34.75;18.35;;;;;;;17.21;100.00;99006.56;5118088;27;20092;-64
2023/10/26 07:25:35;;;;;;;42.78;18.73;;;;;;;17.30;100.00;99009.75;5117102;27;20336;-64
2023/10/26 07:28:01;;;;;;;33.42;18.40;;;;;;;17.39;100.00;99019.94;5117046;28;20387;-64
2023/10/26 07:30:27;;;;;;;34.17;18.25;;;;;;;17.45;100.00;99016.38;5116871;28;20057;-64
2023/10/26 07:32:52;;;;;;;37.90;17.88;;;;;;;17.47;100.00;99006.25;5114995;28;20333;-64
2023/10/26 07:35:18;;;;;;;34.20;17.58;;;;;;;17.48;100.00;99007.06;5115586;28;20406;-65
2023/10/26 07:37:43;;;;;;;33.33;16.38;;;;;;;17.59;100.00;98994.78;5116274;28;20051;-65
2023/10/26 07:40:09;;;;;;;36.95;17.73;;;;;;;17.64;100.00;98994.94;5116532;28;20034;-65
2023/10/26 07:42:35;;;;;;;32.20;16.65;;;;;;;17.72;100.00;98992.00;5116699;28;20309;-64
2023/10/26 07:45:00;;;;;;;32.08;16.83;;;;;;;17.76;100.00;98990.50;5117551;28;20069;-64
2023/10/26 07:47:25;;;;;;;30.98;16.25;;;;;;;17.71;100.00;98980.47;5118037;28;20042;-64
2023/10/26 07:49:51;;;;;;;31.77;16.75;;;;;;;17.79;100.00;98977.47;5120850;28;20023;-64
2023/10/26 07:52:16;;;;;;;35.92;16.83;;;;;;;17.74;100.00;98976.53;5121296;27;20205;-64
2023/10/26 07:54:42;;;;;;;32.35;16.20;;;;;;;17.91;100.00;98976.69;5121195;27;20050;-64
2023/10/26 07:57:07;;;;;;;37.97;18.70;;;;;;;17.94;100.00;98979.75;5120784;27;20384;-64
2023/10/26 07:59:33;;;;;;;29.65;18.10;;;;;;;18.02;100.00;98983.97;5121576;27;20024;-64
2023/10/26 08:01:58;;;;;;;30.67;16.23;;;;;;;18.05;100.00;98962.88;5121276;27;20034;-64
2023/10/26 08:04:23;;;;;;;29.33;15.90;;;;;;;18.13;100.00;98975.94;5120799;27;20400;-64
2023/10/26 08:06:49;;;;;;;31.77;16.40;;;;;;;18.26;100.00;98968.75;5120309;27;20305;-64
2023/10/26 08:09:15;;;;;;;34.60;17.40;;;;;;;18.37;100.00;98992.06;5119989;27;20374;-64
2023/10/26 08:11:41;;;;;;;32.45;16.02;;;;;;;18.42;100.00;98989.53;5120110;27;20108;-64
2023/10/26 08:14:09;;;;;;;33.78;14.98;;;;;;;18.48;100.00;98985.91;5120660;27;20034;-65
2023/10/26 08:16:34;;;;;;;29.67;15.55;;;;;;;18.65;100.00;98981.53;5118153;27;20265;-65
2023/10/26 08:18:59;;;;;;;36.83;18.02;;;;;;;18.71;100.00;98987.81;5119109;28;20034;-65
2023/10/26 08:21:25;;;;;;;29.80;16.23;;;;;;;18.82;100.00;98992.41;5119706;28;20031;-65
2023/10/26 08:23:50;;;;;;;28.33;14.13;;;;;;;18.88;100.00;99002.19;5119673;28;20028;-65
2023/10/26 08:26:16;;;;;;;31.42;14.50;;;;;;;18.89;100.00;99003.00;5119525;27;20313;-65
2023/10/26 08:28:41;;;;;;;23.15;13.07;;;;;;;18.76;100.00;99010.25;5119240;28;20035;-64
2023/10/26 08:31:06;;;;;;;28.85;13.20;;;;;;;18.83;100.00;99012.00;5119684;28;20030;-65
2023/10/26 08:33:34;;;;;;;28.88;12.77;;;;;;;18.75;100.00;99007.78;5119557;28;20040;-65
2023/10/26 08:35:59;;;;;;;27.63;13.65;;;;;;;18.75;100.00;99003.25;5119510;27;20031;-65
2023/10/26 08:38:25;;;;;;;26.02;13.20;;;;;;;18.79;100.00;99004.41;5118954;28;20261;-65
2023/10/26 08:40:54;;;;;;;29.77;12.98;;;;;;;18.81;100.00;99004.19;5120300;28;20028;-65
2023/10/26 08:43:21;;;;;;;26.88;13.25;;;;;;;18.88;100.00;99010.25;5119190;27;20389;-65
2023/10/26 08:45:47;;;;;;;31.85;14.65;;;;;;;18.99;100.00;99022.03;5117795;28;20028;-65
2023/10/26 08:48:18;;;;;;;29.90;13.38;;;;;;;19.08;100.00;99013.38;5119858;28;20062;-65
2023/10/26 08:50:48;;;;;;;25.52;12.52;;;;;;;19.01;100.00;98999.28;5119688;28;20356;-65
2023/10/26 08:53:14;;;;;;;26.50;14.05;;;;;;;19.05;100.00;98991.56;5119268;27;20050;-65
2023/10/26 08:55:41;;;;;;;28.95;12.07;;;;;;;19.10;100.00;98995.19;5119957;28;20309;-65
2023/10/26 08:58:07;;;;;;;29.42;12.00;;;;;;;19.23;100.00;98978.00;5119452;28;20065;-65
2023/10/26 09:00:34;;;;;;;26.83;13.18;;;;;;;19.25;100.00;98977.78;5119237;28;20336;-65
2023/10/26 09:03:00;;;;;;;26.52;13.30;;;;;;;19.34;100.00;98974.47;5120087;27;20340;-65
2023/10/26 09:05:25;;;;;;;26.55;12.38;;;;;;;19.38;100.00;98972.94;5119804;28;20032;-65
2023/10/26 09:07:51;;;;;;;25.00;11.38;;;;;;;19.42;100.00;98966.06;5118873;28;20044;-61
2023/10/26 09:10:33;;;;;;;28.15;12.27;;;;;;;19.42;100.00;98965.25;5119433;27;20038;-62
2023/10/26 09:13:04;;;;;;;28.23;11.65;;;;;;;19.47;100.00;98962.66;5119479;28;20055;-62
2023/10/26 09:15:30;;;;;;;30.40;12.00;;;;;;;19.36;100.00;98958.94;5118726;27;20036;-62
2023/10/26 09:17:57;;;;;;;26.05;11.68;;;;;;;19.44;100.00;98952.38;5119263;28;20035;-62
2023/10/26 09:20:24;;;;;;;26.88;13.55;;;;;;;19.56;100.00;98953.19;5119492;28;20206;-64
2023/10/26 09:22:50;;;;;;;34.25;14.85;;;;;;;19.55;100.00;98945.38;5119667;27;20039;-62
2023/10/26 09:25:16;;;;;;;27.13;13.10;;;;;;;19.57;100.00;98940.59;5119778;28;20205;-62
2023/10/26 09:27:43;;;;;;;28.15;11.30;;;;;;;19.65;100.00;98935.66;5119360;27;20273;-63
2023/10/26 09:30:22;;;;;;;35.80;14.30;;;;;;;19.66;100.00;98949.88;5118544;27;20027;-63
2023/10/26 09:32:48;;;;;;;27.90;12.00;;;;;;;19.75;100.00;98946.56;5118539;28;20043;-62
2023/10/26 09:35:28;;;;;;;26.70;10.55;;;;;;;19.84;100.00;98949.72;5119289;28;20221;-62
2023/10/26 09:37:53;;;;;;;29.20;12.00;;;;;;;19.85;100.00;98943.28;5118854;27;20127;-63
2023/10/26 09:40:23;;;;;;;28.77;12.15;;;;;;;19.95;100.00;98946.16;5118952;27;20348;-62
2023/10/26 09:42:50;;;;;;;30.00;12.77;;;;;;;19.93;100.00;98932.16;5119196;28;20126;-62
2023/10/26 09:45:21;;;;;;;30.55;10.57;;;;;;;19.99;100.00;98927.69;5118946;28;20038;-63
2023/10/26 09:47:46;;;;;;;24.95;10.27;;;;;;;20.03;100.00;98918.06;5118216;27;20039;-62
2023/10/26 09:50:13;;;;;;;34.10;11.63;;;;;;;20.03;100.00;98931.50;5119308;28;20031;-63
2023/10/26 09:52:39;;;;;;;25.65;10.90;;;;;;;20.09;100.00;98923.28;5118703;27;20113;-62
2023/10/26 09:55:12;;;;;;;29.90;10.95;;;;;;;20.03;99.44;98923.44;5118393;28;20092;-62
2023/10/26 09:57:52;;;;;;;24.80;10.63;;;;;;;20.09;99.43;98917.09;5117764;28;20086;-64
2023/10/26 10:00:18;;;;;;;26.42;10.30;;;;;;;20.06;97.97;98902.28;5118010;28;20216;-62
2023/10/26 10:02:43;;;;;;;32.03;10.27;;;;;;;20.08;96.64;98904.72;5116938;28;20348;-63
2023/10/26 10:05:36;;;;;;;27.92;9.68;;;;;;;19.90;97.19;98891.53;5118234;27;20028;-63
2023/10/26 10:08:02;;;;;;;24.42;9.88;;;;;;;19.95;98.30;98887.03;5113196;28;20048;-62
2023/10/26 10:10:27;;;;;;;27.92;10.48;;;;;;;20.04;97.92;98890.13;5117488;28;20035;-65
2023/10/26 10:12:52;;;;;;;23.25;9.77;;;;;;;20.12;98.14;98884.34;5117159;28;20039;-62
2023/10/26 10:15:32;;;;;;;33.70;11.05;;;;;;;20.16;96.44;98882.81;5099084;27;20051;-63
2023/10/26 10:17:58;;;;;;;22.48;8.68;;;;;;;19.98;95.71;98878.50;5116332;28;20035;-63
2023/10/26 10:20:23;;;;;;;22.40;10.20;;;;;;;19.80;96.52;98877.91;5117345;28;20060;-63
2023/10/26 10:22:50;;;;;;;28.67;10.07;;;;;;;19.78;96.80;98870.09;5117687;28;20036;-62
2023/10/26 10:25:23;;;;;;;24.98;10.05;;;;;;;19.82;97.12;98865.06;5117669;28;20042;-63
2023/10/26 10:27:48;;;;;;;25.67;9.90;;;;;;;19.82;96.72;98863.19;5117377;28;20038;-62
2023/10/26 10:30:14;;;;;;;21.70;10.63;;;;;;;19.82;96.22;98859.69;5118088;28;20036;-62
2023/10/26 10:32:43;;;;;;;26.35;9.90;;;;;;;19.82;96.69;98847.06;5117421;28;20066;-64
2023/10/26 10:35:10;;;;;;;24.65;10.07;;;;;;;19.91;95.97;98839.41;5117374;28;20038;-63
2023/10/26 10:37:36;;;;;;;29.10;11.38;;;;;;;19.94;95.76;98841.63;5116750;28;20059;-64
2023/10/26 10:40:19;;;;;;;22.60;9.90;;;;;;;19.91;95.27;98842.91;5117078;28;20035;-64
2023/10/26 10:42:47;;;;;;;35.87;10.93;;;;;;;19.96;95.24;98828.75;5118178;28;20228;-64
2023/10/26 10:45:13;;;;;;;26.88;10.02;;;;;;;19.97;94.89;98816.94;5117944;28;20047;-63
2023/10/26 10:47:40;;;;;;;30.45;11.65;;;;;;;19.95;94.98;98805.63;5117771;28;20295;-64
2023/10/26 10:50:20;;;;;;;30.63;10.80;;;;;;;19.89;96.61;98796.66;5117678;28;20041;-64
2023/10/26 10:52:51;;;;;;;28.65;10.52;;;;;;;19.98;96.46;98810.50;5117196;27;20031;-64
2023/10/26 10:55:26;;;;;;;26.77;10.00;;;;;;;19.91;96.05;98813.34;5118073;28;20275;-64
2023/10/26 10:57:53;;;;;;;27.63;9.95;;;;;;;19.88;96.29;98808.47;5117573;28;20054;-64
2023/10/26 11:00:19;;;;;;;25.90;10.48;;;;;;;19.97;95.81;98798.13;5117999;28;20205;-64
2023/10/26 11:02:46;;;;;;;21.08;10.23;;;;;;;19.92;96.32;98806.13;5116510;28;20309;-63
2023/10/26 11:05:12;;;;;;;31.30;11.82;;;;;;;19.97;96.72;98795.44;5117203;28;20374;-63